Time;durP1;ratioP1;P1;durP2;ratioP2;P2;SDS_P1;SDS_P2;PMS_P1;PMS_P2;Temp;Humidity;BMP_temperature;BMP_pressure;BME280_temperature;BME280_humidity;BME280_pressure;Samples;Min_cycle;Max_cycle;Signal;HPM_P1;HPM_P2
2023/05/24 00:01:47;;;;;;;9.48;2.30;;;;;;;8.22;100.00;101984.81;5064240;28;20510;-71
2023/05/24 00:04:13;;;;;;;14.93;3.15;;;;;;;8.17;100.00;101984.34;5064962;28;20467;-72
2023/05/24 00:06:41;;;;;;;11.98;3.17;;;;;;;8.15;100.00;101986.66;5058110;28;20056;-73
2023/05/24 00:09:07;;;;;;;13.48;2.65;;;;;;;8.11;100.00;101980.28;5058148;28;20654;-71
2023/05/24 00:11:34;;;;;;;22.63;2.85;;;;;;;8.10;100.00;101987.00;5057689;28;20083;-71
2023/05/24 00:14:00;;;;;;;19.48;5.97;;;;;;;8.05;100.00;101985.31;5053936;28;20049;-71
2023/05/24 00:16:27;;;;;;;12.85;2.80;;;;;;;8.03;100.00;101982.13;5063807;28;20052;-72
2023/05/24 00:18:54;;;;;;;12.88;2.90;;;;;;;7.96;100.00;101970.91;5066787;28;20045;-72
2023/05/24 00:21:20;;;;;;;20.80;3.38;;;;;;;7.89;100.00;101972.75;5062512;28;20573;-71
2023/05/24 00:23:47;;;;;;;17.38;3.63;;;;;;;7.79;100.00;101965.06;5054801;28;20091;-71
2023/05/24 00:26:13;;;;;;;12.80;2.90;;;;;;;7.80;100.00;101961.91;5067376;28;20133;-72
2023/05/24 00:28:40;;;;;;;13.65;2.53;;;;;;;7.77;100.00;101962.69;5053884;28;20163;-71
2023/05/24 00:31:07;;;;;;;11.98;4.72;;;;;;;7.78;100.00;101964.28;5065447;28;20040;-72
2023/05/24 00:33:33;;;;;;;13.65;3.05;;;;;;;7.77;100.00;101964.66;5066093;28;20539;-73
2023/05/24 00:36:00;;;;;;;17.80;2.92;;;;;;;7.74;100.00;101959.84;5064153;28;20180;-71
2023/05/24 00:38:27;;;;;;;13.80;3.15;;;;;;;7.70;100.00;101959.75;5056312;28;20048;-72
2023/05/24 00:40:58;;;;;;;14.10;3.50;;;;;;;7.68;100.00;101958.53;5069779;28;20083;-72
2023/05/24 00:43:25;;;;;;;19.15;3.85;;;;;;;7.65;100.00;101964.81;5063221;28;20152;-69
2023/05/24 00:46:25;;;;;;;9.65;3.03;;;;;;;7.57;100.00;101968.63;5056071;28;20072;-72
2023/05/24 00:48:52;;;;;;;15.90;3.40;;;;;;;7.54;100.00;101968.19;5059902;28;20052;-72
2023/05/24 00:51:19;;;;;;;13.18;2.92;;;;;;;7.47;100.00;101961.72;5066476;28;20056;-72
2023/05/24 00:53:47;;;;;;;14.55;3.50;;;;;;;7.40;100.00;101959.63;5072629;28;20537;-71
2023/05/24 00:56:15;;;;;;;14.15;3.05;;;;;;;7.35;100.00;101959.13;5068759;28;20052;-72
2023/05/24 00:58:42;;;;;;;15.30;3.65;;;;;;;7.32;100.00;101966.19;5064248;28;20102;-71
2023/05/24 01:01:09;;;;;;;14.95;3.28;;;;;;;7.30;100.00;101962.97;5056256;28;20534;-72
2023/05/24 01:03:36;;;;;;;18.15;3.83;;;;;;;7.22;100.00;101955.72;5063063;28;20094;-72
2023/05/24 01:06:06;;;;;;;14.32;3.28;;;;;;;7.14;100.00;101959.50;5064714;28;20049;-72
2023/05/24 01:08:41;;;;;;;13.30;3.67;;;;;;;7.14;100.00;101956.75;5053896;28;20054;-71
2023/05/24 01:11:40;;;;;;;15.85;3.45;;;;;;;7.14;100.00;101953.16;5065541;28;20507;-72
2023/05/24 01:14:37;;;;;;;19.67;3.50;;;;;;;7.09;100.00;101958.97;5039700;28;20045;-72
2023/05/24 01:17:25;;;;;;;24.35;3.78;;;;;;;7.07;100.00;101956.59;5056900;28;20445;-73
2023/05/24 01:19:58;;;;;;;16.42;3.58;;;;;;;7.04;100.00;101953.72;5061962;28;20173;-71
2023/05/24 01:23:00;;;;;;;17.33;4.32;;;;;;;6.99;100.00;101960.34;5058692;28;20048;-73
2023/05/24 01:25:40;;;;;;;11.90;3.65;;;;;;;6.96;100.00;101958.28;5067046;28;20055;-72
2023/05/24 01:28:09;;;;;;;20.60;3.88;;;;;;;6.96;100.00;101957.50;5065442;28;20127;-72
2023/05/24 01:30:37;;;;;;;14.05;4.00;;;;;;;6.91;100.00;101958.59;5058220;28;20231;-71
2023/05/24 01:33:03;;;;;;;13.65;3.38;;;;;;;6.88;100.00;101950.22;5064823;28;20101;-72
2023/05/24 01:35:30;;;;;;;16.15;3.63;;;;;;;6.78;100.00;101939.72;5055968;28;20715;-72
2023/05/24 01:37:56;;;;;;;12.55;3.53;;;;;;;6.68;100.00;101943.88;5068710;28;20076;-72
2023/05/24 01:40:23;;;;;;;14.80;3.50;;;;;;;6.65;100.00;101936.31;5059808;28;20120;-72
2023/05/24 01:43:02;;;;;;;22.65;5.03;;;;;;;6.70;100.00;101936.03;5067087;28;20075;-71
2023/05/24 01:45:38;;;;;;;12.13;3.38;;;;;;;6.63;100.00;101929.53;5068186;28;20136;-71
2023/05/24 01:48:17;;;;;;;16.38;3.67;;;;;;;6.57;100.00;101919.91;5053358;28;20048;-73
2023/05/24 01:50:47;;;;;;;15.90;4.03;;;;;;;6.60;100.00;101928.31;5054087;28;20076;-72
2023/05/24 01:53:18;;;;;;;20.45;4.05;;;;;;;6.60;100.00;101931.06;5063172;28;20048;-72
2023/05/24 01:55:47;;;;;;;18.33;4.53;;;;;;;6.56;100.00;101927.44;5068891;28;20097;-71
2023/05/24 01:58:15;;;;;;;13.32;3.83;;;;;;;6.58;100.00;101927.03;5061223;28;20314;-69
2023/05/24 02:00:43;;;;;;;12.10;3.70;;;;;;;6.56;100.00;101921.91;5063358;28;20093;-71
2023/05/24 02:03:13;;;;;;;17.15;4.90;;;;;;;6.49;100.00;101921.72;5065036;28;20071;-73
2023/05/24 02:05:40;;;;;;;15.43;3.58;;;;;;;6.49;100.00;101932.78;5059031;28;20498;-72
2023/05/24 02:08:07;;;;;;;13.20;4.38;;;;;;;6.50;100.00;101928.06;5068575;28;20109;-72
2023/05/24 02:10:37;;;;;;;14.57;3.88;;;;;;;6.47;100.00;101931.53;5068022;28;20131;-71
2023/05/24 02:13:04;;;;;;;12.45;3.55;;;;;;;6.41;100.00;101939.31;5066949;28;20510;-72
2023/05/24 02:15:31;;;;;;;13.77;4.22;;;;;;;6.39;100.00;101940.84;5062038;28;20076;-71
2023/05/24 02:18:00;;;;;;;16.02;3.50;;;;;;;6.37;100.00;101937.63;5066695;28;20529;-71
2023/05/24 02:20:30;;;;;;;12.90;3.50;;;;;;;6.31;100.00;101939.88;5061976;28;20052;-72
2023/05/24 02:22:57;;;;;;;18.77;4.32;;;;;;;6.28;100.00;101937.81;5063332;28;20468;-73
2023/05/24 02:25:24;;;;;;;18.33;4.40;;;;;;;6.23;100.00;101935.34;5064735;28;20671;-69
2023/05/24 02:27:50;;;;;;;14.25;3.90;;;;;;;6.17;100.00;101936.78;5060294;28;20183;-72
2023/05/24 02:30:17;;;;;;;12.70;3.58;;;;;;;6.04;100.00;101935.25;5067796;28;20053;-73
2023/05/24 02:32:45;;;;;;;16.45;3.75;;;;;;;5.99;100.00;101924.50;5056908;28;20129;-70
2023/05/24 02:35:12;;;;;;;12.38;3.63;;;;;;;6.00;100.00;101931.63;5067647;28;20094;-70
2023/05/24 02:37:38;;;;;;;20.75;4.35;;;;;;;5.98;100.00;101928.41;5066287;28;20045;-72
2023/05/24 02:40:05;;;;;;;15.57;5.15;;;;;;;5.92;100.00;101932.63;5064534;28;20095;-72
2023/05/24 02:42:32;;;;;;;13.75;3.45;;;;;;;5.89;100.00;101933.31;5067140;28;20090;-72
2023/05/24 02:44:59;;;;;;;14.35;4.00;;;;;;;5.83;100.00;101931.97;5067651;28;20071;-70
2023/05/24 02:47:25;;;;;;;18.17;4.13;;;;;;;5.77;100.00;101927.88;5066680;28;20131;-71
2023/05/24 02:49:53;;;;;;;14.73;4.38;;;;;;;5.71;100.00;101936.78;5062310;28;20405;-73
2023/05/24 02:52:21;;;;;;;15.75;3.53;;;;;;;5.58;100.00;101933.31;5067629;28;20102;-72
2023/05/24 02:54:49;;;;;;;17.48;4.60;;;;;;;5.63;100.00;101944.06;5061566;28;20079;-72
2023/05/24 02:57:15;;;;;;;23.15;4.95;;;;;;;5.69;100.00;101936.34;5066382;28;20048;-72
2023/05/24 02:59:42;;;;;;;16.80;4.30;;;;;;;5.67;100.00;101931.16;5067382;28;20336;-71
2023/05/24 03:02:12;;;;;;;16.58;4.10;;;;;;;5.71;100.00;101934.81;5065500;28;20068;-72
2023/05/24 03:04:39;;;;;;;16.08;4.13;;;;;;;5.64;100.00;101936.63;5065813;28;20064;-72
2023/05/24 03:07:05;;;;;;;13.73;4.20;;;;;;;5.51;100.00;101930.38;5067635;28;20140;-70
2023/05/24 03:09:32;;;;;;;16.88;4.60;;;;;;;5.43;100.00;101930.53;5063739;28;20040;-71
2023/05/24 03:11:58;;;;;;;15.05;4.72;;;;;;;5.32;100.00;101944.03;5066886;28;20049;-73
2023/05/24 03:14:25;;;;;;;17.92;4.95;;;;;;;5.23;100.00;101934.31;5065882;28;20490;-70
2023/05/24 03:16:51;;;;;;;18.92;4.93;;;;;;;5.26;100.00;101933.63;5065836;28;20135;-72
2023/05/24 03:19:18;;;;;;;19.92;4.65;;;;;;;5.21;100.00;101925.56;5064102;28;20130;-72
2023/05/24 03:21:44;;;;;;;17.60;4.95;;;;;;;5.27;100.00;101922.22;5063819;28;20097;-71
2023/05/24 03:24:12;;;;;;;19.17;4.65;;;;;;;5.33;100.00;101912.53;5066970;28;20478;-73
2023/05/24 03:26:39;;;;;;;13.93;4.75;;;;;;;5.36;100.00;101917.34;5067331;28;20052;-72
2023/05/24 03:29:06;;;;;;;19.13;5.05;;;;;;;5.40;100.00;101915.47;5067357;28;20495;-71
2023/05/24 03:31:32;;;;;;;14.57;4.63;;;;;;;5.36;100.00;101914.59;5058450;28;20126;-72
2023/05/24 03:33:59;;;;;;;16.45;4.32;;;;;;;5.36;100.00;101914.59;5066940;28;20541;-72
2023/05/24 03:36:27;;;;;;;15.93;4.40;;;;;;;5.41;100.00;101928.13;5062069;28;20063;-72
2023/05/24 03:38:56;;;;;;;13.95;4.07;;;;;;;5.49;100.00;101927.16;5065660;28;20053;-71
2023/05/24 03:41:23;;;;;;;17.83;4.38;;;;;;;5.55;100.00;101934.03;5066890;28;20048;-72
2023/05/24 03:43:51;;;;;;;19.15;4.90;;;;;;;5.55;100.00;101930.44;5062329;28;20052;-72
2023/05/24 03:46:17;;;;;;;18.27;4.70;;;;;;;5.51;100.00;101937.84;5066771;28;20079;-72
2023/05/24 03:48:44;;;;;;;16.80;5.50;;;;;;;5.52;100.00;101943.00;5066948;28;20040;-72
2023/05/24 03:51:11;;;;;;;19.25;4.93;;;;;;;5.54;100.00;101940.69;5066648;28;20102;-68
2023/05/24 03:53:37;;;;;;;16.52;4.07;;;;;;;5.51;100.00;101944.16;5059609;28;20449;-72
2023/05/24 03:56:04;;;;;;;19.38;4.72;;;;;;;5.55;100.00;101947.00;5067016;28;20127;-72
2023/05/24 03:58:31;;;;;;;17.02;4.85;;;;;;;5.58;100.00;101952.63;5066569;28;20105;-72
2023/05/24 04:00:57;;;;;;;17.15;4.60;;;;;;;5.66;100.00;101940.63;5066775;28;20080;-72
2023/05/24 04:03:24;;;;;;;20.20;4.88;;;;;;;5.72;100.00;101947.47;5061683;28;20101;-72
2023/05/24 04:05:52;;;;;;;17.85;5.35;;;;;;;5.75;100.00;101945.97;5063338;28;20052;-71
2023/05/24 04:08:19;;;;;;;19.95;5.68;;;;;;;5.82;100.00;101946.13;5065228;28;20049;-72
2023/05/24 04:10:46;;;;;;;22.83;7.00;;;;;;;5.86;100.00;101947.03;5066197;28;20473;-69
2023/05/24 04:13:12;;;;;;;17.52;4.20;;;;;;;5.89;100.00;101949.88;5062463;28;20075;-71
2023/05/24 04:15:39;;;;;;;15.52;4.03;;;;;;;5.92;100.00;101945.59;5070426;28;20098;-72
2023/05/24 04:18:06;;;;;;;18.95;4.88;;;;;;;6.00;100.00;101950.13;5064870;28;20449;-69
2023/05/24 04:20:32;;;;;;;17.60;4.45;;;;;;;6.02;100.00;101950.59;5068534;28;20633;-71
2023/05/24 04:22:59;;;;;;;18.88;5.25;;;;;;;5.91;100.00;101953.06;5070040;28;20079;-71
2023/05/24 04:25:26;;;;;;;17.27;5.10;;;;;;;5.78;100.00;101951.56;5064154;28;20577;-71
2023/05/24 04:27:53;;;;;;;19.40;5.80;;;;;;;5.83;100.00;101950.50;5070632;28;20044;-72
2023/05/24 04:30:20;;;;;;;23.30;5.63;;;;;;;5.87;100.00;101948.66;5069032;28;20418;-73
2023/05/24 04:32:47;;;;;;;16.38;5.28;;;;;;;5.92;100.00;101945.59;5067088;28;20048;-71
2023/05/24 04:35:15;;;;;;;23.35;5.28;;;;;;;6.01;100.00;101955.31;5067316;28;20396;-72
2023/05/24 04:37:43;;;;;;;17.98;5.15;;;;;;;6.12;100.00;101967.44;5069603;28;20056;-71
2023/05/24 04:40:10;;;;;;;16.88;4.50;;;;;;;6.20;100.00;101963.66;5069801;28;20502;-73
2023/05/24 04:42:37;;;;;;;30.73;6.78;;;;;;;6.30;100.00;101965.06;5069870;28;20048;-73
2023/05/24 04:45:04;;;;;;;18.67;5.10;;;;;;;6.41;100.00;101972.47;5069507;28;20044;-72
2023/05/24 04:47:31;;;;;;;20.58;5.32;;;;;;;6.46;100.00;101961.16;5063963;28;20052;-73
2023/05/24 04:49:57;;;;;;;13.88;4.38;;;;;;;6.50;100.00;101972.25;5062793;28;20048;-72
2023/05/24 04:52:24;;;;;;;23.98;6.30;;;;;;;6.43;100.00;101970.16;5070661;28;20145;-71
2023/05/24 04:54:50;;;;;;;28.63;6.88;;;;;;;6.43;100.00;101966.56;5069892;28;20124;-72
2023/05/24 04:57:17;;;;;;;24.30;5.88;;;;;;;6.33;100.00;101970.69;5069189;28;20100;-71
2023/05/24 04:59:43;;;;;;;30.38;5.63;;;;;;;6.30;100.00;101974.19;5069621;28;20172;-71
2023/05/24 05:02:10;;;;;;;30.58;6.53;;;;;;;6.30;100.00;101971.41;5069850;28;20442;-73
2023/05/24 05:04:37;;;;;;;23.17;6.00;;;;;;;6.30;100.00;101976.94;5064167;28;20040;-73
2023/05/24 05:07:03;;;;;;;27.08;6.40;;;;;;;6.36;100.00;101971.94;5067492;28;20048;-71
2023/05/24 05:09:30;;;;;;;28.27;6.43;;;;;;;6.47;100.00;101970.22;5055750;28;20195;-70
2023/05/24 05:11:57;;;;;;;19.33;6.70;;;;;;;6.52;100.00;101969.97;5062830;28;20126;-71
2023/05/24 05:14:23;;;;;;;25.00;5.78;;;;;;;6.46;100.00;101966.69;5069363;28;20044;-71
2023/05/24 05:16:50;;;;;;;24.13;5.25;;;;;;;6.41;100.00;101968.88;5061624;28;20125;-73
2023/05/24 05:19:17;;;;;;;29.02;7.07;;;;;;;6.47;100.00;101981.28;5068409;28;20759;-71
2023/05/24 05:21:43;;;;;;;22.25;5.55;;;;;;;6.51;100.00;101987.66;5061465;28;20451;-71
2023/05/24 05:24:10;;;;;;;26.05;6.65;;;;;;;6.64;100.00;101998.28;5067756;28;20106;-71
2023/05/24 05:26:36;;;;;;;28.35;6.60;;;;;;;6.64;100.00;102003.78;5056312;28;20052;-69
2023/05/24 05:29:03;;;;;;;22.63;5.57;;;;;;;6.58;100.00;101991.41;5056704;28;20075;-72
2023/05/24 05:31:30;;;;;;;25.92;6.75;;;;;;;6.67;100.00;101988.44;5055284;28;20080;-70
2023/05/24 05:33:56;;;;;;;28.85;6.15;;;;;;;6.69;100.00;101989.69;5049187;28;20041;-70
2023/05/24 05:36:23;;;;;;;23.52;6.93;;;;;;;6.76;100.00;101987.06;5063625;28;20083;-72
2023/05/24 05:38:49;;;;;;;28.83;6.50;;;;;;;6.73;100.00;101984.25;5068138;28;20051;-72
2023/05/24 05:41:16;;;;;;;24.20;6.20;;;;;;;6.75;100.00;101979.94;5059001;28;20048;-70
2023/05/24 05:43:43;;;;;;;26.80;6.63;;;;;;;6.75;100.00;101985.47;5068597;28;20048;-71
2023/05/24 05:46:10;;;;;;;26.42;6.68;;;;;;;6.86;100.00;101988.50;5067535;28;20048;-72
2023/05/24 05:48:36;;;;;;;25.25;7.38;;;;;;;7.00;100.00;101994.31;5068921;28;20136;-70
2023/05/24 05:51:03;;;;;;;23.98;7.10;;;;;;;7.05;100.00;101994.84;5059772;28;20467;-71
2023/05/24 05:53:32;;;;;;;29.13;9.02;;;;;;;7.20;100.00;101995.97;5059009;28;20049;-70
2023/05/24 05:55:59;;;;;;;24.08;8.18;;;;;;;7.36;100.00;102000.25;5074136;28;20513;-70
2023/05/24 05:58:25;;;;;;;25.70;7.30;;;;;;;7.52;100.00;101993.84;5068043;28;20597;-71
2023/05/24 06:00:52;;;;;;;26.92;6.75;;;;;;;7.56;100.00;101980.88;5068434;28;20517;-71
2023/05/24 06:03:19;;;;;;;27.13;6.88;;;;;;;7.67;100.00;101992.94;5059445;28;20053;-71
2023/05/24 06:05:45;;;;;;;22.13;6.10;;;;;;;7.65;100.00;101989.72;5056771;28;20041;-68
2023/05/24 06:08:12;;;;;;;27.33;6.80;;;;;;;7.68;100.00;102000.88;5064196;28;20110;-70
2023/05/24 06:10:38;;;;;;;26.77;7.63;;;;;;;7.74;100.00;101999.41;5066346;28;20044;-68
2023/05/24 06:13:06;;;;;;;24.20;7.53;;;;;;;7.86;100.00;101985.38;5062619;28;20076;-67
2023/05/24 06:15:33;;;;;;;29.25;6.55;;;;;;;7.91;100.00;101998.94;5064395;28;20049;-69
2023/05/24 06:18:00;;;;;;;28.85;7.35;;;;;;;8.05;100.00;101988.09;5065143;28;20044;-69
2023/05/24 06:20:28;;;;;;;23.92;6.95;;;;;;;8.15;100.00;102000.53;5066717;28;20060;-67
2023/05/24 06:22:55;;;;;;;28.63;7.20;;;;;;;8.21;100.00;101996.28;5065904;28;20041;-69
2023/05/24 06:25:23;;;;;;;20.92;6.20;;;;;;;8.42;100.00;101999.38;5063513;28;20431;-69
2023/05/24 06:27:52;;;;;;;22.67;5.38;;;;;;;8.52;100.00;101999.56;5068843;28;20056;-67
2023/05/24 06:30:19;;;;;;;22.17;4.65;;;;;;;8.58;100.00;102011.13;5066292;28;20148;-70
2023/05/24 06:32:46;;;;;;;23.58;6.32;;;;;;;8.69;100.00;102003.78;5065085;28;20048;-71
2023/05/24 06:35:13;;;;;;;24.52;6.45;;;;;;;8.85;100.00;101990.56;5061553;28;20053;-71
2023/05/24 06:37:39;;;;;;;24.73;6.40;;;;;;;8.85;100.00;101996.88;5058484;28;20040;-69
2023/05/24 06:40:08;;;;;;;32.38;5.85;;;;;;;8.96;100.00;101997.84;5066645;28;20453;-68
2023/05/24 06:42:35;;;;;;;20.83;6.35;;;;;;;9.11;100.00;101994.06;5065796;28;20135;-68
2023/05/24 06:45:02;;;;;;;20.88;5.60;;;;;;;9.26;100.00;102000.63;5067742;28;20056;-68
2023/05/24 06:47:29;;;;;;;26.85;6.35;;;;;;;9.38;100.00;101992.81;5067740;28;20044;-69
2023/05/24 06:49:56;;;;;;;27.60;6.20;;;;;;;9.52;100.00;102003.31;5063104;28;20048;-66
2023/05/24 06:52:23;;;;;;;24.85;5.82;;;;;;;9.64;100.00;102003.84;5067849;28;20056;-69
2023/05/24 06:54:49;;;;;;;28.85;5.43;;;;;;;9.84;100.00;101999.69;5067539;28;20073;-69
2023/05/24 06:57:16;;;;;;;33.65;5.65;;;;;;;9.86;100.00;102002.09;5067010;28;20109;-68
2023/05/24 06:59:42;;;;;;;22.10;5.47;;;;;;;9.99;100.00;102003.41;5063760;28;20594;-69
2023/05/24 07:02:09;;;;;;;22.67;5.20;;;;;;;10.10;100.00;101998.78;5063479;28;20079;-69
2023/05/24 07:04:36;;;;;;;23.67;5.22;;;;;;;10.30;100.00;101991.81;5056579;28;20075;-71
2023/05/24 07:07:02;;;;;;;24.55;5.32;;;;;;;10.42;100.00;102001.78;5062149;28;20135;-70
2023/05/24 07:09:29;;;;;;;26.80;5.32;;;;;;;10.56;100.00;101993.56;5064571;28;20102;-71
2023/05/24 07:11:56;;;;;;;20.08;5.90;;;;;;;10.69;100.00;101995.63;5057719;28;20059;-69
2023/05/24 07:14:24;;;;;;;24.45;4.90;;;;;;;10.75;100.00;101982.16;5061626;28;20061;-70
2023/05/24 07:16:51;;;;;;;36.78;7.32;;;;;;;10.79;100.00;102000.47;5064730;28;20052;-68
2023/05/24 07:19:20;;;;;;;23.25;5.10;;;;;;;10.81;100.00;101986.19;5067039;28;20422;-71
2023/05/24 07:21:46;;;;;;;25.90;5.20;;;;;;;10.86;100.00;101991.34;5063346;28;20068;-71
2023/05/24 07:24:13;;;;;;;23.15;5.28;;;;;;;10.98;100.00;101994.63;5055095;28;20099;-71
2023/05/24 07:26:42;;;;;;;24.20;4.80;;;;;;;11.08;100.00;101995.88;5065250;28;20044;-68
2023/05/24 07:29:08;;;;;;;14.57;4.90;;;;;;;11.07;100.00;101995.06;5046329;28;20494;-69
2023/05/24 07:31:35;;;;;;;23.17;5.35;;;;;;;11.12;100.00;102002.25;5064205;28;20110;-71
2023/05/24 07:34:02;;;;;;;22.00;6.00;;;;;;;11.16;100.00;101991.91;5049892;28;20495;-68
2023/05/24 07:36:31;;;;;;;27.83;5.60;;;;;;;11.14;100.00;101992.31;5049755;28;20048;-69
2023/05/24 07:39:01;;;;;;;25.90;5.05;;;;;;;11.22;100.00;102007.91;5056622;28;20562;-68
2023/05/24 07:41:28;;;;;;;22.25;5.15;;;;;;;11.35;100.00;102003.56;5053752;28;20108;-69
2023/05/24 07:43:54;;;;;;;27.50;5.45;;;;;;;11.20;100.00;101996.31;5046473;28;20107;-68
2023/05/24 07:46:21;;;;;;;21.08;4.82;;;;;;;11.31;100.00;101999.97;5053217;28;20067;-72
2023/05/24 07:48:48;;;;;;;21.77;4.85;;;;;;;11.45;100.00;101996.44;5050710;28;20056;-72
2023/05/24 07:51:15;;;;;;;19.73;4.72;;;;;;;11.60;100.00;101986.94;5051374;28;20049;-68
2023/05/24 07:53:41;;;;;;;16.92;4.50;;;;;;;11.64;100.00;101996.91;5049831;28;20106;-72
2023/05/24 07:56:08;;;;;;;20.95;4.18;;;;;;;11.71;100.00;101998.88;5056479;28;20866;-69
2023/05/24 07:58:35;;;;;;;22.90;4.78;;;;;;;11.75;100.00;101989.34;5051164;28;20053;-71
2023/05/24 08:01:02;;;;;;;19.88;4.78;;;;;;;11.85;100.00;101999.72;5064763;28;20068;-68
2023/05/24 08:03:28;;;;;;;24.98;5.57;;;;;;;11.91;100.00;101991.75;5064001;28;20055;-71
2023/05/24 08:05:55;;;;;;;20.48;5.72;;;;;;;11.95;100.00;101993.38;5050876;28;20525;-68
2023/05/24 08:08:23;;;;;;;18.25;4.70;;;;;;;11.99;100.00;101999.72;5051412;28;20040;-69
2023/05/24 08:10:49;;;;;;;24.27;4.95;;;;;;;11.99;100.00;101994.16;5050182;28;20048;-68
2023/05/24 08:13:16;;;;;;;21.08;4.60;;;;;;;11.99;100.00;101998.97;5059080;28;20053;-70
2023/05/24 08:15:42;;;;;;;26.02;4.85;;;;;;;12.03;100.00;101992.19;5058031;28;20048;-69
2023/05/24 08:18:09;;;;;;;19.05;4.85;;;;;;;12.09;100.00;101992.59;5068244;28;20498;-68
2023/05/24 08:20:37;;;;;;;18.50;4.63;;;;;;;12.12;100.00;101998.16;5068039;28;20124;-72
2023/05/24 08:23:04;;;;;;;21.48;5.50;;;;;;;12.11;100.00;101993.78;5058676;28;20168;-68
2023/05/24 08:25:31;;;;;;;19.77;4.47;;;;;;;11.88;100.00;101990.56;5050324;28;20064;-68
2023/05/24 08:27:58;;;;;;;17.35;3.90;;;;;;;11.78;100.00;101985.78;5052674;28;20049;-69
2023/05/24 08:30:24;;;;;;;26.23;5.07;;;;;;;11.78;100.00;101987.78;5051419;28;20044;-69
2023/05/24 08:32:52;;;;;;;16.50;4.35;;;;;;;11.77;100.00;101989.75;5056402;28;20523;-68
2023/05/24 08:35:18;;;;;;;20.45;4.82;;;;;;;11.81;100.00;101998.91;5048815;28;20049;-69
2023/05/24 08:37:47;;;;;;;23.17;5.05;;;;;;;11.88;100.00;101998.13;5052179;28;22160;-69
2023/05/24 08:40:15;;;;;;;19.92;4.90;;;;;;;11.98;100.00;101997.34;5050171;28;20090;-69
2023/05/24 08:42:42;;;;;;;17.40;5.78;;;;;;;12.02;100.00;101993.38;5056036;28;20065;-68
2023/05/24 08:45:11;;;;;;;19.45;5.03;;;;;;;12.21;100.00;101993.00;5051595;28;20554;-69
2023/05/24 08:47:38;;;;;;;25.27;4.75;;;;;;;12.21;100.00;101989.41;5057755;28;20503;-70
2023/05/24 08:50:06;;;;;;;21.92;4.97;;;;;;;12.30;100.00;101987.78;5053404;28;20164;-67
2023/05/24 08:52:33;;;;;;;24.45;5.53;;;;;;;12.48;100.00;101988.63;5049686;28;20135;-68
2023/05/24 08:55:01;;;;;;;19.90;4.38;;;;;;;12.56;100.00;101983.84;5048390;28;20040;-69
2023/05/24 08:57:31;;;;;;;21.77;5.25;;;;;;;12.57;100.00;101987.41;5055147;28;20052;-68
2023/05/24 08:59:58;;;;;;;26.25;5.00;;;;;;;12.60;100.00;101986.63;5065246;28;20109;-70
2023/05/24 09:02:25;;;;;;;20.02;4.20;;;;;;;12.64;100.00;101990.19;5044891;28;20114;-69
2023/05/24 09:04:52;;;;;;;17.73;4.95;;;;;;;12.69;100.00;101987.00;5055161;28;20041;-69
2023/05/24 09:07:23;;;;;;;20.77;4.13;;;;;;;12.57;100.00;101994.56;5063676;28;20068;-71
2023/05/24 09:10:10;;;;;;;19.63;4.32;;;;;;;12.69;100.00;101984.22;5060114;28;20072;-73
2023/05/24 09:12:38;;;;;;;19.60;4.38;;;;;;;12.82;100.00;101979.81;5060337;28;20053;-67
2023/05/24 09:15:06;;;;;;;23.10;4.68;;;;;;;12.88;100.00;101983.75;5069597;28;20113;-69
2023/05/24 09:17:35;;;;;;;23.40;5.07;;;;;;;12.96;100.00;101979.75;5064493;28;20443;-69
2023/05/24 09:20:05;;;;;;;17.00;4.05;;;;;;;13.10;100.00;101977.69;5064000;28;20067;-70
2023/05/24 09:22:33;;;;;;;24.00;4.28;;;;;;;13.21;100.00;101983.25;5066582;28;20052;-69
2023/05/24 09:25:04;;;;;;;23.38;4.93;;;;;;;13.31;100.00;101986.00;5066909;28;20534;-69
2023/05/24 09:27:36;;;;;;;17.67;3.67;;;;;;;13.32;100.00;101984.78;5066669;28;20480;-71
2023/05/24 09:30:08;;;;;;;18.60;3.38;;;;;;;13.40;100.00;101982.78;5068721;28;20102;-70
2023/05/24 09:32:34;;;;;;;15.35;3.38;;;;;;;13.42;100.00;101983.16;5058870;28;20060;-69
2023/05/24 09:35:01;;;;;;;18.05;4.20;;;;;;;13.53;100.00;101978.31;5056127;28;20045;-70
2023/05/24 09:37:28;;;;;;;12.15;2.97;;;;;;;13.57;100.00;101982.69;5060359;28;20437;-69
2023/05/24 09:39:58;;;;;;;25.38;4.68;;;;;;;13.69;100.00;101975.84;5068989;28;20048;-69
2023/05/24 09:42:27;;;;;;;17.17;3.70;;;;;;;13.85;100.00;101981.72;5068492;28;20056;-70
2023/05/24 09:45:07;;;;;;;22.80;4.10;;;;;;;13.78;100.00;101971.38;5061497;28;20052;-70
2023/05/24 09:47:39;;;;;;;15.98;3.97;;;;;;;13.85;100.00;101965.75;5055270;28;20078;-71
2023/05/24 09:50:12;;;;;;;19.33;3.67;;;;;;;13.87;100.00;101973.75;5055472;28;20060;-69
2023/05/24 09:52:39;;;;;;;19.63;4.07;;;;;;;13.85;100.00;101979.75;5057897;28;20499;-71
2023/05/24 09:55:17;;;;;;;19.98;3.80;;;;;;;13.81;100.00;101964.19;5057800;28;20418;-69
2023/05/24 09:57:48;;;;;;;22.08;4.15;;;;;;;13.77;100.00;101980.19;5058169;28;20044;-70
2023/05/24 10:00:21;;;;;;;16.92;4.05;;;;;;;13.62;100.00;101978.69;5058196;28;20139;-68
2023/05/24 10:03:07;;;;;;;19.70;4.57;;;;;;;13.56;100.00;101971.91;5061090;28;20075;-72
2023/05/24 10:05:35;;;;;;;17.42;4.72;;;;;;;13.46;100.00;101975.56;5058538;28;20051;-70
2023/05/24 10:08:05;;;;;;;16.05;4.45;;;;;;;13.33;100.00;101972.41;5060295;28;20148;-69
2023/05/24 10:10:32;;;;;;;19.15;5.43;;;;;;;13.24;100.00;101969.28;5056054;28;20083;-72
2023/05/24 10:13:00;;;;;;;22.88;4.75;;;;;;;13.15;100.00;101968.09;5064055;28;20044;-71
2023/05/24 10:15:28;;;;;;;15.13;4.32;;;;;;;13.07;100.00;101972.13;5060929;28;20042;-69
2023/05/24 10:17:56;;;;;;;15.38;3.58;;;;;;;13.01;100.00;101976.53;5063050;28;20055;-69
2023/05/24 10:20:23;;;;;;;14.45;3.97;;;;;;;12.98;100.00;101983.72;5062255;28;20063;-71
2023/05/24 10:22:58;;;;;;;16.60;3.70;;;;;;;12.86;100.00;101980.59;5055342;28;20251;-71
2023/05/24 10:25:27;;;;;;;14.80;3.95;;;;;;;12.97;100.00;101984.94;5071851;28;20097;-72
2023/05/24 10:28:00;;;;;;;18.83;3.95;;;;;;;13.03;100.00;101985.31;5059954;28;20063;-72
2023/05/24 10:30:33;;;;;;;20.10;4.45;;;;;;;13.15;100.00;101982.06;5066425;28;20056;-70
2023/05/24 10:33:01;;;;;;;17.40;3.92;;;;;;;13.20;100.00;101976.84;5060987;28;20072;-70
2023/05/24 10:35:29;;;;;;;17.48;4.45;;;;;;;13.39;100.00;101981.97;5062874;28;20062;-70
2023/05/24 10:37:56;;;;;;;18.48;4.25;;;;;;;13.51;100.00;101977.94;5060848;28;20052;-70
2023/05/24 10:40:25;;;;;;;19.80;5.07;;;;;;;13.46;100.00;101986.75;5069929;28;20056;-72
2023/05/24 10:42:55;;;;;;;20.00;4.03;;;;;;;13.61;100.00;101988.28;5059088;28;20118;-71
2023/05/24 10:45:21;;;;;;;21.58;4.45;;;;;;;13.65;100.00;101992.66;5061885;28;20483;-69
2023/05/24 10:47:48;;;;;;;23.38;5.28;;;;;;;13.66;100.00;101991.44;5057744;28;20052;-69
2023/05/24 10:50:19;;;;;;;21.08;3.55;;;;;;;13.57;100.00;101982.69;5063430;28;20080;-69
2023/05/24 10:52:48;;;;;;;23.98;5.72;;;;;;;13.55;100.00;101970.34;5066489;28;20052;-69
2023/05/24 10:55:17;;;;;;;19.00;4.90;;;;;;;13.58;100.00;101975.13;5064524;28;20087;-69
2023/05/24 10:57:44;;;;;;;19.55;4.18;;;;;;;13.65;100.00;101970.28;5049625;28;20089;-69
2023/05/24 11:00:24;;;;;;;28.52;5.28;;;;;;;13.72;100.00;101975.84;5048897;28;20078;-69
2023/05/24 11:03:01;;;;;;;16.15;3.63;;;;;;;13.82;100.00;101976.97;5058864;28;20052;-70
2023/05/24 11:05:35;;;;;;;18.38;3.83;;;;;;;13.87;100.00;101982.13;5062355;28;20527;-70
2023/05/24 11:08:05;;;;;;;19.27;4.33;;;;;;;13.89;100.00;101974.09;5050837;28;20048;-69
2023/05/24 11:10:32;;;;;;;19.83;4.00;;;;;;;13.99;100.00;101976.84;5060202;28;20059;-69
2023/05/24 11:13:00;;;;;;;16.17;3.75;;;;;;;13.92;100.00;101968.50;5059852;28;20052;-71
2023/05/24 11:15:28;;;;;;;18.92;6.15;;;;;;;13.96;100.00;101974.06;5061054;28;20072;-71
2023/05/24 11:18:13;;;;;;;15.10;4.43;;;;;;;14.10;100.00;101983.13;5055543;28;20055;-71
2023/05/24 11:20:46;;;;;;;19.00;4.45;;;;;;;14.17;100.00;101985.88;5058556;28;20047;-72